F/V Jeremi Simon — FHAF — position and weather

sailwx.info

Track history (hours):
 
Tides and Currents Weather Stations Pressure Air Temp Water Temp Dewpoint Dewpoint Depression Visibility Wind Speed Wind Dir Waves Ship Positions

F/V Jeremi Simon

Last reported at 2014-Sep-01 04:32 UTC. Time now 2014-Sep-01 21:21 UTC.
Position N 45°00' W 003°09'.

Length 20 m.

Type: Other ship. MMSI: 227415000.

Date/timePositionNaut miles runAvg speedWind from/ knotsBaromVisibWave heightAir tempDewpointWater temp
2014-Sep-01 04:32N 45°00' W 003°09'3 2.3
2014-Sep-01 03:21N 44°59' W 003°06'3 4.2
2014-Sep-01 02:33N 44°57' W 003°02'2 2.2
2014-Sep-01 01:33N 44°57' W 002°59'3 1.7
2014-Aug-31 23:33N 44°56' W 003°03'2 1.7
2014-Aug-31 22:33N 44°57' W 003°05'84 2.2
2014-Aug-30 08:24N 46°14' W 002°19'8 9.3
2014-Aug-30 07:32N 46°21' W 002°13'9 9.2
2014-Aug-30 06:33N 46°29' W 002°07'9 9.1
2014-Aug-30 05:33N 46°37' W 002°01'5 5.4
2014-Aug-30 04:33N 46°42' W 001°57'  
2014-Aug-27 14:17N 46°41' W 001°57'810.4
2014-Aug-27 13:33N 46°34' W 001°55'7 6.6
2014-Aug-27 12:33N 46°30' W 001°48'0 0.4
2014-Aug-27 11:33N 46°30' W 001°47'0 0.0
2014-Aug-27 10:34N 46°30' W 001°47'0 0.0
2014-Aug-27 09:33N 46°30' W 001°47'0 0.0
2014-Aug-27 08:34N 46°30' W 001°47'0 0.0
2014-Aug-27 07:33N 46°30' W 001°47'0 0.0
2014-Aug-27 06:34N 46°30' W 001°47'0 0.1
2014-Aug-27 05:34N 46°30' W 001°47'0 0.0
2014-Aug-27 04:34N 46°30' W 001°47'0 0.0
2014-Aug-27 03:33N 46°30' W 001°47'0 0.0
2014-Aug-27 02:33N 46°30' W 001°47'0 0.0
2014-Aug-27 01:34N 46°30' W 001°47'0 0.0
2014-Aug-27 00:33N 46°30' W 001°47'0 0.0
2014-Aug-26 23:34N 46°30' W 001°47'0 0.0
2014-Aug-26 22:33N 46°30' W 001°47'0 0.0
2014-Aug-26 21:33N 46°30' W 001°47'0 0.0
2014-Aug-26 20:33N 46°30' W 001°47'0 0.0
2014-Aug-26 19:33N 46°30' W 001°47'0 0.0
2014-Aug-26 18:34N 46°30' W 001°47'0 0.0
2014-Aug-26 17:34N 46°30' W 001°47'0 0.0
2014-Aug-26 16:34N 46°30' W 001°47'0 0.4
2014-Aug-26 15:34N 46°30' W 001°48'7 7.5
2014-Aug-26 14:33N 46°23' W 001°53'  
Track history (hours):
 
Tides and Currents Weather Stations Pressure Air Temp Water Temp Dewpoint Dewpoint Depression Visibility Wind Speed Wind Dir Waves Ship Positions

F/V Jeremi Simon

Last reported at 2014-Sep-01 04:32 UTC. Time now 2014-Sep-01 21:21 UTC.
Position N 45°00' W 003°09'.

Length 20 m.

Type: Other ship. MMSI: 227415000.

Date/timePositionNaut miles runAvg speedWind from/ knotsBaromVisibWave heightAir tempDewpointWater temp
2014-Sep-01 04:32N 45°00' W 003°09'3 2.3
2014-Sep-01 03:21N 44°59' W 003°06'3 4.2
2014-Sep-01 02:33N 44°57' W 003°02'2 2.2
2014-Sep-01 01:33N 44°57' W 002°59'3 1.7
2014-Aug-31 23:33N 44°56' W 003°03'2 1.7
2014-Aug-31 22:33N 44°57' W 003°05'84 2.2
2014-Aug-30 08:24N 46°14' W 002°19'8 9.3
2014-Aug-30 07:32N 46°21' W 002°13'9 9.2
2014-Aug-30 06:33N 46°29' W 002°07'9 9.1
2014-Aug-30 05:33N 46°37' W 002°01'5 5.4
2014-Aug-30 04:33N 46°42' W 001°57'  
2014-Aug-27 14:17N 46°41' W 001°57'810.4
2014-Aug-27 13:33N 46°34' W 001°55'7 6.6
2014-Aug-27 12:33N 46°30' W 001°48'0 0.4
2014-Aug-27 11:33N 46°30' W 001°47'0 0.0
2014-Aug-27 10:34N 46°30' W 001°47'0 0.0
2014-Aug-27 09:33N 46°30' W 001°47'0 0.0
2014-Aug-27 08:34N 46°30' W 001°47'0 0.0
2014-Aug-27 07:33N 46°30' W 001°47'0 0.0
2014-Aug-27 06:34N 46°30' W 001°47'0 0.1
2014-Aug-27 05:34N 46°30' W 001°47'0 0.0
2014-Aug-27 04:34N 46°30' W 001°47'0 0.0
2014-Aug-27 03:33N 46°30' W 001°47'0 0.0
2014-Aug-27 02:33N 46°30' W 001°47'0 0.0
2014-Aug-27 01:34N 46°30' W 001°47'0 0.0
2014-Aug-27 00:33N 46°30' W 001°47'0 0.0
2014-Aug-26 23:34N 46°30' W 001°47'0 0.0
2014-Aug-26 22:33N 46°30' W 001°47'0 0.0
2014-Aug-26 21:33N 46°30' W 001°47'0 0.0
2014-Aug-26 20:33N 46°30' W 001°47'0 0.0
2014-Aug-26 19:33N 46°30' W 001°47'0 0.0
2014-Aug-26 18:34N 46°30' W 001°47'0 0.0
2014-Aug-26 17:34N 46°30' W 001°47'0 0.0
2014-Aug-26 16:34N 46°30' W 001°47'0 0.4
2014-Aug-26 15:34N 46°30' W 001°48'7 7.5
2014-Aug-26 14:33N 46°23' W 001°53'  

Dump ship's entire track history